createdAt,value
2023-03-27T00:10:21.341Z,78.36
2023-03-27T00:40:24.365Z,79.24
2023-03-27T01:10:32.947Z,80.47
2023-03-27T01:40:38.142Z,78.91
2023-03-27T02:10:45.095Z,80.17
2023-03-27T02:40:56.174Z,79.84
2023-03-27T03:11:04.113Z,82.37
2023-03-27T03:41:07.367Z,83.72
2023-03-27T04:11:10.377Z,84.57
2023-03-27T04:41:13.516Z,85.42
2023-03-27T05:11:16.402Z,85.74
2023-03-27T05:41:19.345Z,85.54
2023-03-27T06:11:22.254Z,85.17
2023-03-27T06:41:25.211Z,82.92
2023-03-27T07:11:32.004Z,78.12
2023-03-27T07:41:36.626Z,73.39
2023-03-27T08:11:39.712Z,70.84
2023-03-27T08:41:49.109Z,74.55
2023-03-27T09:12:00.790Z,58.31
2023-03-27T09:42:08.031Z,55.43
2023-03-27T10:12:17.698Z,64.98
2023-03-27T10:42:26.114Z,65.36
2023-03-27T11:12:36.637Z,65.05
2023-03-27T11:42:43.364Z,44.75
2023-03-27T12:13:10.533Z,39.34
2023-03-27T12:43:25.734Z,47.83
2023-03-27T13:13:43.246Z,38.95
2023-03-27T13:43:46.711Z,47.61
2023-03-27T14:14:06.994Z,71.05
2023-03-27T14:44:12.662Z,46.30
2023-03-27T15:14:17.611Z,46.87
2023-03-27T15:44:22.393Z,61.43
2023-03-27T16:14:30.942Z,47.98
2023-03-27T16:44:33.924Z,72.41
2023-03-27T17:14:37.206Z,73.41
2023-03-27T17:44:40.294Z,77.93
2023-03-27T18:14:43.559Z,78.91
2023-03-27T18:44:46.621Z,81.43
2023-03-27T19:14:49.622Z,80.93
2023-03-27T19:44:52.633Z,80.96
2023-03-27T20:15:09.905Z,83.25
2023-03-27T20:45:15.083Z,82.75
2023-03-27T21:15:18.173Z,82.74
2023-03-27T21:45:21.434Z,81.63
2023-03-27T22:15:24.351Z,83.06
2023-03-27T22:45:27.654Z,83.42
2023-03-27T23:15:30.617Z,83.04
2023-03-27T23:45:33.871Z,84.67
